Time;durP1;ratioP1;P1;durP2;ratioP2;P2;SDS_P1;SDS_P2;PMS_P1;PMS_P2;Temp;Humidity;BMP_temperature;BMP_pressure;BME280_temperature;BME280_humidity;BME280_pressure;Samples;Min_cycle;Max_cycle;Signal;HPM_P1;HPM_P2
2022/11/26 00:02:22;;;;;;;24.35;8.48;;;5.90;99.90;;;;;;5054936;28;20143;-88
2022/11/26 00:04:48;;;;;;;23.02;7.80;;;5.80;99.90;;;;;;5069838;28;20044;-88
2022/11/26 00:07:20;;;;;;;22.38;8.50;;;5.80;99.90;;;;;;5056827;28;20408;-88
2022/11/26 00:09:46;;;;;;;27.85;8.23;;;6.00;99.90;;;;;;5055268;28;20047;-88
2022/11/26 00:12:19;;;;;;;19.52;7.85;;;5.80;99.90;;;;;;5028777;28;20041;-88
2022/11/26 00:14:46;;;;;;;20.77;7.80;;;5.80;99.90;;;;;;5053680;28;20045;-88
2022/11/26 00:17:14;;;;;;;25.13;8.32;;;5.70;99.90;;;;;;5038014;28;20381;-87
2022/11/26 00:19:41;;;;;;;19.50;7.47;;;6.80;99.90;;;;;;5038079;28;20058;-88
2022/11/26 00:22:38;;;;;;;20.08;7.70;;;5.90;99.90;;;;;;5070945;28;20128;-88
2022/11/26 00:25:04;;;;;;;22.42;7.47;;;5.70;99.90;;;;;;5068040;28;20056;-87
2022/11/26 00:27:30;;;;;;;18.75;7.78;;;5.60;99.90;;;;;;5022257;28;20094;-87
2022/11/26 00:29:56;;;;;;;19.27;7.40;;;5.60;99.90;;;;;;5056188;28;20052;-87
2022/11/26 00:32:25;;;;;;;19.48;8.05;;;5.60;99.90;;;;;;5042663;28;20071;-87
2022/11/26 00:34:52;;;;;;;24.48;8.50;;;6.10;99.90;;;;;;5074450;28;20041;-88
2022/11/26 00:37:22;;;;;;;22.38;7.93;;;5.50;99.90;;;;;;5073396;28;20047;-88
2022/11/26 00:39:49;;;;;;;19.35;7.90;;;5.80;99.90;;;;;;5055881;28;20024;-87
2022/11/26 00:42:16;;;;;;;19.77;7.82;;;5.50;99.90;;;;;;5056723;28;20120;-88
2022/11/26 00:44:42;;;;;;;21.40;8.20;;;5.50;99.90;;;;;;5038777;28;20054;-88
2022/11/26 00:47:08;;;;;;;26.08;8.05;;;5.50;99.90;;;;;;5057357;28;20132;-88
2022/11/26 00:49:34;;;;;;;19.38;7.60;;;5.40;99.90;;;;;;5078535;28;20048;-88
2022/11/26 00:52:00;;;;;;;26.48;8.13;;;5.40;99.90;;;;;;5042996;28;20040;-87
2022/11/26 00:54:26;;;;;;;23.23;7.85;;;6.10;99.90;;;;;;5040949;28;20052;-87
2022/11/26 00:56:51;;;;;;;24.27;8.20;;;5.40;99.90;;;;;;5025895;28;20048;-87
2022/11/26 00:59:20;;;;;;;24.05;7.97;;;5.40;99.90;;;;;;5042221;28;20070;-87
2022/11/26 01:01:46;;;;;;;22.27;7.80;;;5.40;99.90;;;;;;5076010;28;20369;-87
2022/11/26 01:04:11;;;;;;;22.08;7.75;;;5.50;99.90;;;;;;5060823;28;20147;-87
2022/11/26 01:06:43;;;;;;;28.45;7.57;;;5.40;99.90;;;;;;5026363;28;20404;-87
2022/11/26 01:09:20;;;;;;;23.33;8.15;;;5.40;99.90;;;;;;5082156;28;20056;-87
2022/11/26 01:11:46;;;;;;;24.65;7.85;;;5.40;99.90;;;;;;5096614;28;20358;-87
2022/11/26 01:14:15;;;;;;;17.25;8.05;;;6.50;99.90;;;;;;5092755;28;20439;-88
2022/11/26 01:16:43;;;;;;;22.58;7.10;;;5.50;99.90;;;;;;5073598;28;20052;-87
2022/11/26 01:19:11;;;;;;;18.73;7.63;;;5.30;99.90;;;;;;5039961;28;20040;-88
2022/11/26 01:21:37;;;;;;;19.73;7.78;;;6.30;99.90;;;;;;5072999;28;20048;-87
2022/11/26 01:24:03;;;;;;;18.30;7.15;;;5.30;99.90;;;;;;5040269;28;20059;-87
2022/11/26 01:26:47;;;;;;;20.00;7.25;;;5.30;99.90;;;;;;5072458;28;20094;-88
2022/11/26 01:29:18;;;;;;;18.42;6.80;;;5.20;99.90;;;;;;5055921;28;20044;-87
2022/11/26 01:31:44;;;;;;;16.23;7.55;;;5.20;99.90;;;;;;5040330;28;20059;-88
2022/11/26 01:34:09;;;;;;;22.20;6.97;;;6.10;99.90;;;;;;5040560;28;20159;-87
2022/11/26 01:36:37;;;;;;;15.98;7.07;;;5.50;99.90;;;;;;5024355;28;20553;-87
2022/11/26 01:39:14;;;;;;;20.42;7.32;;;5.20;99.90;;;;;;5041509;28;20108;-87
2022/11/26 01:41:54;;;;;;;23.08;7.78;;;5.40;99.90;;;;;;5073815;28;20044;-88
2022/11/26 01:44:26;;;;;;;19.35;7.18;;;5.30;99.90;;;;;;5074530;28;20052;-88
2022/11/26 01:46:53;;;;;;;29.13;8.00;;;5.20;99.90;;;;;;5072189;28;20123;-87
2022/11/26 01:49:23;;;;;;;21.90;7.93;;;5.20;99.90;;;;;;5055718;28;20040;-87
2022/11/26 01:52:17;;;;;;;22.25;7.53;;;5.20;99.90;;;;;;5056807;28;20087;-87
2022/11/26 01:54:43;;;;;;;26.13;7.22;;;6.00;99.90;;;;;;5056535;28;20622;-88
2022/11/26 01:57:14;;;;;;;21.85;7.72;;;5.30;99.90;;;;;;5073290;28;20049;-88
2022/11/26 01:59:42;;;;;;;21.35;7.43;;;5.30;99.90;;;;;;5056108;28;20037;-87
2022/11/26 02:02:08;;;;;;;28.60;8.07;;;5.30;99.90;;;;;;5039010;28;20051;-87
2022/11/26 02:04:42;;;;;;;24.30;7.25;;;5.30;99.90;;;;;;5071411;28;20101;-87
2022/11/26 02:07:07;;;;;;;25.80;7.60;;;5.30;99.90;;;;;;5054495;28;20040;-87
2022/11/26 02:09:33;;;;;;;23.27;7.28;;;5.30;99.90;;;;;;5048487;28;20083;-87
2022/11/26 02:12:00;;;;;;;19.60;8.30;;;5.30;99.90;;;;;;5057960;28;20037;-87
2022/11/26 02:14:37;;;;;;;17.08;7.03;;;5.30;99.90;;;;;;5060599;28;20076;-87
2022/11/26 02:17:21;;;;;;;29.23;7.28;;;5.30;99.90;;;;;;5061942;28;20040;-87
2022/11/26 02:19:59;;;;;;;22.60;7.40;;;5.30;99.90;;;;;;5061449;28;20040;-87
2022/11/26 02:22:49;;;;;;;26.67;7.00;;;5.20;99.90;;;;;;5071727;28;20032;-87
2022/11/26 02:25:45;;;;;;;22.77;7.10;;;5.20;99.90;;;;;;5055747;28;20055;-87
2022/11/26 02:28:19;;;;;;;21.88;7.28;;;5.20;99.90;;;;;;5055760;28;20174;-87
2022/11/26 02:30:52;;;;;;;22.40;7.57;;;5.60;99.90;;;;;;5072459;28;20115;-87
2022/11/26 02:33:27;;;;;;;16.70;7.22;;;5.40;99.90;;;;;;5056977;28;20044;-87
2022/11/26 02:36:00;;;;;;;23.08;7.20;;;5.20;99.90;;;;;;5071409;28;20048;-87
2022/11/26 02:38:29;;;;;;;25.50;6.97;;;5.20;99.90;;;;;;5054602;28;20091;-87
2022/11/26 02:40:55;;;;;;;23.23;6.60;;;5.20;99.90;;;;;;5073348;28;20086;-87
2022/11/26 02:43:22;;;;;;;17.00;6.43;;;5.20;99.90;;;;;;5062459;28;20036;-88
2022/11/26 02:45:53;;;;;;;17.55;7.18;;;5.10;99.90;;;;;;5037992;28;20051;-87
2022/11/26 02:48:26;;;;;;;24.25;6.95;;;5.20;99.90;;;;;;5071119;28;20068;-87
2022/11/26 02:50:56;;;;;;;19.48;7.18;;;5.50;99.90;;;;;;5055121;28;20045;-87
2022/11/26 02:53:25;;;;;;;21.52;7.07;;;5.20;99.90;;;;;;5053996;28;20122;-88
2022/11/26 02:56:05;;;;;;;24.33;8.05;;;5.40;99.90;;;;;;5070714;28;20063;-87
2022/11/26 02:58:32;;;;;;;21.58;7.40;;;5.10;99.90;;;;;;5054024;28;20132;-88
2022/11/26 03:01:00;;;;;;;25.05;7.13;;;5.30;99.90;;;;;;5021600;28;20564;-87
2022/11/26 03:03:31;;;;;;;26.15;7.18;;;6.00;99.90;;;;;;5071163;28;20561;-87
2022/11/26 03:06:04;;;;;;;25.27;6.85;;;5.20;99.90;;;;;;5055565;28;20595;-87
2022/11/26 03:08:31;;;;;;;17.15;7.28;;;6.70;99.90;;;;;;5053964;28;20048;-87
2022/11/26 03:10:58;;;;;;;20.58;6.18;;;6.40;99.90;;;;;;5037102;28;20059;-87
2022/11/26 03:13:23;;;;;;;22.38;7.18;;;5.20;99.90;;;;;;5036741;28;20188;-87
2022/11/26 03:15:49;;;;;;;30.40;7.05;;;6.20;99.90;;;;;;5022301;28;20047;-87
2022/11/26 03:18:15;;;;;;;15.90;7.05;;;5.10;99.90;;;;;;5022454;28;20044;-86
2022/11/26 03:20:41;;;;;;;18.90;6.68;;;5.10;99.90;;;;;;5039067;28;20044;-87
2022/11/26 03:23:07;;;;;;;22.67;7.10;;;5.10;99.90;;;;;;5055126;28;20037;-87
2022/11/26 03:25:33;;;;;;;20.45;7.28;;;5.10;99.90;;;;;;5021273;28;20500;-88
2022/11/26 03:27:59;;;;;;;22.45;7.20;;;5.30;99.90;;;;;;5037475;28;20471;-87
2022/11/26 03:30:24;;;;;;;18.75;7.32;;;5.50;99.90;;;;;;5036895;28;20120;-87
2022/11/26 03:32:50;;;;;;;27.30;7.15;;;5.20;99.90;;;;;;5051148;28;20064;-87
2022/11/26 03:35:16;;;;;;;15.88;6.90;;;5.00;99.90;;;;;;5020788;28;20169;-87
2022/11/26 03:37:42;;;;;;;22.98;7.30;;;4.90;99.90;;;;;;5053813;28;20045;-87
2022/11/26 03:40:08;;;;;;;18.02;6.50;;;5.00;99.90;;;;;;5055273;28;20044;-87
2022/11/26 03:42:35;;;;;;;19.77;6.97;;;4.90;99.90;;;;;;5070856;28;20052;-87
2022/11/26 03:45:01;;;;;;;17.35;7.07;;;5.40;99.90;;;;;;5054103;28;20102;-87
2022/11/26 03:47:27;;;;;;;18.75;6.80;;;5.00;99.90;;;;;;5037131;28;20044;-87
2022/11/26 03:49:52;;;;;;;22.17;7.22;;;5.00;99.90;;;;;;5054322;28;20040;-87
2022/11/26 03:52:19;;;;;;;23.25;8.00;;;5.00;99.90;;;;;;5053411;28;20579;-87
2022/11/26 03:54:45;;;;;;;18.30;7.88;;;5.00;99.90;;;;;;5052710;28;20492;-87
2022/11/26 03:57:11;;;;;;;19.30;7.25;;;5.40;99.90;;;;;;5053334;28;20053;-87
2022/11/26 03:59:36;;;;;;;26.10;7.38;;;5.00;99.90;;;;;;5020465;28;20068;-87
2022/11/26 04:02:03;;;;;;;26.98;7.97;;;6.10;99.90;;;;;;5053885;28;20041;-88
2022/11/26 04:04:29;;;;;;;22.38;7.35;;;5.80;99.90;;;;;;5055666;28;20041;-87
2022/11/26 04:06:55;;;;;;;20.98;7.85;;;5.70;99.90;;;;;;5050208;28;20055;-87
2022/11/26 04:09:21;;;;;;;20.55;7.75;;;5.00;99.90;;;;;;5059229;28;20045;-88
2022/11/26 04:11:47;;;;;;;23.25;7.50;;;6.20;99.90;;;;;;5041667;28;20048;-87
2022/11/26 04:14:13;;;;;;;20.00;7.15;;;5.00;99.90;;;;;;5057666;28;20070;-87
2022/11/26 04:16:38;;;;;;;18.00;7.53;;;6.10;99.90;;;;;;5040667;28;20032;-87
2022/11/26 04:19:04;;;;;;;21.85;7.60;;;5.00;99.90;;;;;;5040911;28;20036;-87
2022/11/26 04:21:30;;;;;;;26.60;7.80;;;5.00;99.90;;;;;;5075113;28;20520;-87
2022/11/26 04:23:55;;;;;;;24.88;8.48;;;5.00;99.90;;;;;;5056989;28;20038;-86
2022/11/26 04:26:21;;;;;;;27.15;7.30;;;5.00;99.90;;;;;;5056578;28;20447;-87
2022/11/26 04:28:49;;;;;;;19.50;7.82;;;5.90;99.90;;;;;;5041066;28;20076;-87
2022/11/26 04:31:15;;;;;;;28.95;8.73;;;5.00;99.90;;;;;;5041942;28;20044;-87
2022/11/26 04:33:41;;;;;;;23.60;7.95;;;5.10;99.90;;;;;;5073786;28;20041;-87
2022/11/26 04:36:07;;;;;;;23.17;7.90;;;5.00;99.90;;;;;;5063907;28;20040;-87
2022/11/26 04:38:33;;;;;;;31.30;8.23;;;4.90;99.90;;;;;;5056829;28;20488;-87
2022/11/26 04:40:59;;;;;;;21.00;7.68;;;4.90;99.90;;;;;;5023709;28;20059;-87
2022/11/26 04:43:25;;;;;;;20.75;7.03;;;5.30;99.90;;;;;;5072003;28;20032;-87
2022/11/26 04:45:50;;;;;;;24.75;7.85;;;4.90;99.90;;;;;;5057097;28;20044;-87
2022/11/26 04:48:16;;;;;;;19.77;7.90;;;4.90;99.90;;;;;;5056398;28;20125;-87
2022/11/26 04:50:42;;;;;;;18.55;7.82;;;4.90;99.90;;;;;;5040000;28;20045;-87
2022/11/26 04:53:08;;;;;;;27.13;8.85;;;4.90;99.90;;;;;;5039916;28;20036;-87
2022/11/26 04:55:33;;;;;;;16.80;8.02;;;4.80;99.90;;;;;;5058286;28;20420;-86
2022/11/26 04:57:59;;;;;;;23.08;8.00;;;4.80;99.90;;;;;;5040891;28;20051;-87
2022/11/26 05:00:25;;;;;;;17.15;7.88;;;5.20;99.90;;;;;;5056313;28;20044;-87
2022/11/26 05:02:51;;;;;;;22.95;7.63;;;4.80;99.90;;;;;;5039823;28;20033;-87
2022/11/26 05:05:17;;;;;;;21.48;8.05;;;5.00;99.90;;;;;;5032185;28;20118;-86
2022/11/26 05:07:43;;;;;;;21.90;8.80;;;4.70;99.90;;;;;;5024030;28;20048;-87
2022/11/26 05:10:09;;;;;;;18.35;8.48;;;4.60;99.90;;;;;;5024917;28;20132;-87
2022/11/26 05:12:35;;;;;;;23.75;8.45;;;4.60;99.90;;;;;;5059037;28;20044;-88
2022/11/26 05:15:01;;;;;;;16.73;8.52;;;5.30;99.90;;;;;;5058289;28;20044;-87
2022/11/26 05:17:27;;;;;;;18.45;7.25;;;4.50;99.90;;;;;;5046463;28;20041;-87
2022/11/26 05:19:53;;;;;;;21.42;8.30;;;4.50;99.90;;;;;;5064472;28;20043;-87
2022/11/26 05:22:18;;;;;;;14.45;7.35;;;4.50;99.90;;;;;;5049269;28;20481;-87
2022/11/26 05:24:44;;;;;;;15.32;7.65;;;4.50;99.90;;;;;;5040652;28;20040;-87
2022/11/26 05:27:10;;;;;;;22.35;8.13;;;4.50;99.90;;;;;;5043945;28;20032;-87
2022/11/26 05:29:36;;;;;;;21.48;8.48;;;5.60;99.90;;;;;;5044138;28;20045;-87
2022/11/26 05:32:02;;;;;;;17.15;7.22;;;4.50;99.90;;;;;;5040397;28;20044;-86
2022/11/26 05:34:27;;;;;;;20.80;7.70;;;4.50;99.90;;;;;;5056563;28;20041;-87
2022/11/26 05:36:53;;;;;;;20.13;7.65;;;6.10;99.90;;;;;;5039666;28;20118;-87
2022/11/26 05:39:19;;;;;;;18.75;9.13;;;5.50;99.90;;;;;;5024004;28;20047;-87
2022/11/26 05:41:44;;;;;;;23.50;9.27;;;4.40;99.90;;;;;;5023006;28;20442;-87
2022/11/26 05:44:10;;;;;;;12.75;8.18;;;4.40;99.90;;;;;;5055896;28;20037;-87
2022/11/26 05:46:40;;;;;;;21.73;9.05;;;4.40;99.90;;;;;;5055876;28;20082;-87
2022/11/26 05:49:06;;;;;;;23.05;8.13;;;5.60;99.90;;;;;;5056522;28;20036;-86
2022/11/26 05:51:31;;;;;;;18.15;8.27;;;5.40;99.90;;;;;;5039224;28;20369;-87
2022/11/26 05:53:57;;;;;;;15.57;8.85;;;4.30;99.90;;;;;;5050781;28;20197;-87
2022/11/26 05:56:23;;;;;;;22.25;8.68;;;4.30;99.90;;;;;;5054726;28;20059;-87
2022/11/26 05:58:48;;;;;;;21.70;8.32;;;4.40;99.90;;;;;;5038752;28;20044;-87
2022/11/26 06:01:14;;;;;;;18.00;9.30;;;4.30;99.90;;;;;;5023084;28;20036;-87
2022/11/26 06:03:40;;;;;;;20.77;10.02;;;4.30;99.90;;;;;;5022778;28;20041;-87
2022/11/26 06:06:06;;;;;;;19.30;9.52;;;4.40;99.90;;;;;;5022356;28;20036;-87
2022/11/26 06:08:32;;;;;;;16.48;9.68;;;4.30;99.90;;;;;;5038892;28;20040;-87
2022/11/26 06:10:57;;;;;;;21.05;8.38;;;4.30;99.90;;;;;;5036724;28;20044;-87
2022/11/26 06:13:24;;;;;;;20.67;8.48;;;4.30;99.90;;;;;;5022091;28;20127;-87
2022/11/26 06:15:49;;;;;;;25.52;8.75;;;4.30;99.90;;;;;;5071885;28;20044;-87
2022/11/26 06:18:16;;;;;;;21.08;9.50;;;4.30;99.90;;;;;;5038634;28;20113;-87
2022/11/26 06:20:41;;;;;;;20.00;8.90;;;4.30;99.90;;;;;;5039853;28;20037;-87
2022/11/26 06:23:07;;;;;;;19.75;9.07;;;4.70;99.90;;;;;;5056951;28;20041;-87
2022/11/26 06:25:33;;;;;;;26.00;9.05;;;5.70;99.90;;;;;;5024981;28;20049;-87
2022/11/26 06:27:59;;;;;;;20.00;10.13;;;4.20;99.90;;;;;;5043210;28;20504;-87
2022/11/26 06:30:24;;;;;;;19.60;9.15;;;4.50;99.90;;;;;;5033294;28;20047;-86
2022/11/26 06:32:50;;;;;;;20.90;9.45;;;4.10;99.90;;;;;;5022842;28;20549;-87
2022/11/26 06:35:16;;;;;;;22.88;9.30;;;4.20;99.90;;;;;;5046150;28;20063;-87
2022/11/26 06:37:41;;;;;;;21.58;10.45;;;4.20;99.90;;;;;;5052186;28;20059;-87
2022/11/26 06:40:10;;;;;;;23.42;10.43;;;5.20;99.90;;;;;;5037685;28;20377;-87
2022/11/26 06:42:36;;;;;;;27.52;10.15;;;4.20;99.90;;;;;;5054723;28;20040;-87
2022/11/26 06:45:01;;;;;;;25.08;9.32;;;5.20;99.90;;;;;;5038249;28;20058;-87
2022/11/26 06:47:27;;;;;;;25.48;9.30;;;4.20;99.90;;;;;;5054320;28;20041;-87
2022/11/26 06:49:53;;;;;;;24.13;9.15;;;4.20;99.90;;;;;;5054900;28;20040;-87
2022/11/26 06:52:18;;;;;;;29.17;9.75;;;4.40;99.90;;;;;;5039134;28;20028;-87
2022/11/26 06:54:45;;;;;;;26.10;10.07;;;4.60;99.90;;;;;;5055667;28;20104;-87
2022/11/26 06:57:11;;;;;;;20.23;8.65;;;4.20;99.90;;;;;;5037253;28;20509;-87
2022/11/26 06:59:37;;;;;;;24.50;10.93;;;4.30;99.90;;;;;;5038981;28;20043;-87
2022/11/26 07:02:02;;;;;;;19.67;8.30;;;4.80;99.90;;;;;;5038066;28;20116;-87
2022/11/26 07:04:28;;;;;;;23.48;11.68;;;4.30;99.90;;;;;;5039054;28;20040;-86
2022/11/26 07:06:53;;;;;;;25.98;10.85;;;4.40;99.90;;;;;;5022697;28;20040;-87
2022/11/26 07:09:19;;;;;;;29.60;10.77;;;4.30;99.90;;;;;;5038220;28;20032;-87
2022/11/26 07:11:45;;;;;;;28.38;11.05;;;5.00;99.90;;;;;;5053290;28;20039;-87
2022/11/26 07:14:11;;;;;;;29.77;10.85;;;4.30;99.90;;;;;;5038913;28;20043;-87
2022/11/26 07:16:36;;;;;;;25.52;10.27;;;6.00;99.90;;;;;;5040923;28;20064;-87
2022/11/26 07:19:02;;;;;;;24.38;10.82;;;4.40;99.90;;;;;;5023583;28;20492;-87
2022/11/26 07:21:28;;;;;;;31.08;11.43;;;4.40;99.90;;;;;;5051497;28;20405;-81
2022/11/26 07:23:54;;;;;;;27.45;11.95;;;4.40;99.90;;;;;;5054349;28;20040;-82
2022/11/26 07:26:21;;;;;;;30.30;12.18;;;4.40;99.90;;;;;;5053402;28;20032;-83
2022/11/26 07:28:47;;;;;;;22.77;10.55;;;4.40;99.90;;;;;;5037341;28;20506;-82
2022/11/26 07:31:15;;;;;;;29.15;11.32;;;4.70;99.90;;;;;;5053397;28;20033;-82
2022/11/26 07:33:41;;;;;;;34.15;12.27;;;4.40;99.90;;;;;;5069491;28;20052;-82
2022/11/26 07:36:13;;;;;;;25.55;11.10;;;4.50;99.90;;;;;;5070803;28;20048;-81
2022/11/26 07:38:38;;;;;;;25.50;10.77;;;4.50;99.90;;;;;;5069970;28;20055;-81
2022/11/26 07:41:06;;;;;;;27.98;10.95;;;5.00;99.90;;;;;;5041289;28;20044;-82
2022/11/26 07:43:40;;;;;;;28.40;11.25;;;4.50;99.90;;;;;;5075270;28;20036;-81
2022/11/26 07:46:08;;;;;;;31.08;11.30;;;4.50;99.90;;;;;;5056092;28;20036;-82
2022/11/26 07:48:34;;;;;;;28.65;10.73;;;4.50;99.90;;;;;;5073730;28;20037;-82
2022/11/26 07:51:01;;;;;;;21.23;10.18;;;4.50;99.90;;;;;;5057678;28;20041;-82
2022/11/26 07:53:28;;;;;;;32.47;10.95;;;4.50;99.90;;;;;;5040605;28;20044;-81
2022/11/26 07:55:54;;;;;;;32.83;12.15;;;5.10;99.90;;;;;;5056922;28;20090;-81
2022/11/26 07:58:20;;;;;;;30.10;10.80;;;4.60;99.90;;;;;;5056939;28;20094;-81
2022/11/26 08:00:46;;;;;;;23.13;10.82;;;4.60;99.90;;;;;;5040628;28;20488;-81
2022/11/26 08:03:12;;;;;;;27.70;11.40;;;4.60;99.90;;;;;;5040722;28;20044;-81
2022/11/26 08:05:42;;;;;;;23.15;10.45;;;5.20;99.90;;;;;;5055237;28;20048;-81
2022/11/26 08:08:08;;;;;;;23.50;9.98;;;4.70;99.90;;;;;;5056228;28;20063;-80
2022/11/26 08:10:34;;;;;;;30.30;11.70;;;4.70;99.90;;;;;;5057094;28;20044;-81
2022/11/26 08:13:00;;;;;;;24.65;9.90;;;4.80;99.90;;;;;;5049562;28;20047;-82
2022/11/26 08:15:25;;;;;;;35.25;11.02;;;6.20;99.90;;;;;;5054566;28;20051;-81
2022/11/26 08:17:55;;;;;;;29.20;10.70;;;4.80;99.90;;;;;;5039995;28;20107;-81
2022/11/26 08:20:21;;;;;;;28.33;10.13;;;5.90;99.90;;;;;;5039869;28;20170;-81
2022/11/26 08:22:47;;;;;;;32.67;12.20;;;4.90;99.90;;;;;;5056803;28;20051;-81
2022/11/26 08:25:13;;;;;;;28.15;11.23;;;4.90;99.90;;;;;;5040920;28;20029;-81
2022/11/26 08:27:38;;;;;;;33.85;12.40;;;5.00;99.90;;;;;;5040336;28;20599;-82
2022/11/26 08:30:05;;;;;;;32.15;12.55;;;5.00;99.90;;;;;;5055361;28;20041;-81
2022/11/26 08:32:32;;;;;;;29.17;11.48;;;5.00;99.90;;;;;;5072766;28;20090;-81
2022/11/26 08:34:58;;;;;;;28.05;11.48;;;5.10;99.90;;;;;;5056540;28;20545;-81
2022/11/26 08:37:23;;;;;;;29.80;12.60;;;5.80;99.90;;;;;;5023851;28;20170;-81
2022/11/26 08:39:49;;;;;;;35.95;12.73;;;5.20;99.90;;;;;;5032079;28;20040;-80
2022/11/26 08:42:15;;;;;;;29.95;11.52;;;5.20;99.90;;;;;;5056808;28;20121;-80
2022/11/26 08:44:41;;;;;;;32.08;12.27;;;5.90;99.90;;;;;;5038988;28;20062;-79
2022/11/26 08:47:07;;;;;;;27.45;11.68;;;5.30;99.90;;;;;;5070893;28;20048;-79
2022/11/26 08:49:32;;;;;;;30.30;12.10;;;6.00;99.90;;;;;;5069320;28;20055;-79
2022/11/26 08:51:58;;;;;;;35.08;13.15;;;6.10;99.90;;;;;;5053216;28;20040;-79
2022/11/26 08:54:24;;;;;;;28.05;11.32;;;5.50;99.90;;;;;;5038443;28;20475;-79
2022/11/26 08:56:50;;;;;;;35.47;12.85;;;6.40;99.90;;;;;;5053703;28;20048;-79
2022/11/26 08:59:18;;;;;;;28.08;13.45;;;5.70;99.90;;;;;;5021494;28;20067;-80
2022/11/26 09:01:44;;;;;;;30.33;12.65;;;5.70;99.90;;;;;;5035779;28;20043;-79
2022/11/26 09:04:10;;;;;;;27.58;10.63;;;6.30;99.90;;;;;;5069940;28;20040;-79
2022/11/26 09:06:36;;;;;;;34.03;14.43;;;5.90;99.90;;;;;;5053600;28;20072;-79
2022/11/26 09:09:12;;;;;;;32.53;12.05;;;6.30;99.90;;;;;;5068902;28;20488;-79
2022/11/26 09:11:48;;;;;;;36.25;12.60;;;6.10;99.90;;;;;;5071201;28;20067;-79
2022/11/26 09:14:16;;;;;;;24.58;10.35;;;6.30;99.90;;;;;;5054838;28;20041;-79
2022/11/26 09:16:43;;;;;;;27.70;13.05;;;6.90;99.90;;;;;;5073754;28;20912;-80
2022/11/26 09:19:10;;;;;;;30.05;14.02;;;6.40;99.90;;;;;;5073409;28;20047;-81
2022/11/26 09:21:36;;;;;;;36.38;15.05;;;6.50;99.90;;;;;;5073778;28;20123;-79
2022/11/26 09:24:02;;;;;;;28.25;12.27;;;6.50;99.90;;;;;;5078894;28;20469;-80
2022/11/26 09:26:30;;;;;;;37.20;13.07;;;6.50;99.90;;;;;;5061700;28;20040;-80
2022/11/26 09:28:56;;;;;;;26.60;13.02;;;7.50;99.90;;;;;;5072548;28;20045;-80
2022/11/26 09:31:22;;;;;;;36.15;15.32;;;6.50;99.90;;;;;;5055489;28;20503;-80
2022/11/26 09:33:48;;;;;;;35.33;15.77;;;6.50;99.90;;;;;;5072968;28;20082;-80
2022/11/26 09:36:15;;;;;;;33.17;14.23;;;6.60;99.90;;;;;;5071625;28;20540;-80
2022/11/26 09:38:41;;;;;;;31.08;12.82;;;6.70;99.90;;;;;;5053471;28;20068;-80
2022/11/26 09:41:23;;;;;;;32.05;13.65;;;6.70;99.90;;;;;;5055667;28;20041;-81
2022/11/26 09:43:59;;;;;;;34.33;13.77;;;6.70;99.90;;;;;;5055741;28;20108;-81
2022/11/26 09:46:35;;;;;;;35.83;14.90;;;7.70;99.90;;;;;;5055211;28;20056;-81
2022/11/26 09:49:02;;;;;;;31.63;13.95;;;7.20;99.90;;;;;;5071122;28;20079;-81
2022/11/26 09:51:29;;;;;;;32.67;14.25;;;6.80;99.90;;;;;;5055549;28;20045;-81
2022/11/26 09:53:56;;;;;;;36.55;14.90;;;6.80;99.90;;;;;;5039520;28;20044;-81
2022/11/26 09:56:26;;;;;;;32.83;13.35;;;6.80;99.90;;;;;;5055232;28;20053;-81
2022/11/26 09:58:58;;;;;;;35.30;13.55;;;6.80;99.90;;;;;;5088962;28;20122;-81
2022/11/26 10:01:24;;;;;;;26.80;12.35;;;6.80;99.90;;;;;;5071720;28;20036;-81
2022/11/26 10:03:51;;;;;;;36.67;14.65;;;6.90;99.90;;;;;;5021264;28;20101;-81
2022/11/26 10:06:25;;;;;;;32.97;13.45;;;6.90;99.90;;;;;;5054665;28;20047;-81
2022/11/26 10:09:13;;;;;;;28.55;13.40;;;6.90;99.90;;;;;;5086672;28;20508;-81
2022/11/26 10:11:58;;;;;;;37.13;15.05;;;6.90;99.90;;;;;;5053757;28;20082;-81
2022/11/26 10:14:42;;;;;;;37.70;14.27;;;7.00;99.90;;;;;;5046997;28;20084;-81
2022/11/26 10:17:37;;;;;;;33.53;14.88;;;7.00;99.90;;;;;;5072784;28;20116;-82
2022/11/26 10:20:29;;;;;;;32.97;14.48;;;7.00;99.90;;;;;;5071705;28;20048;-81
2022/11/26 10:23:01;;;;;;;29.98;14.27;;;7.10;99.90;;;;;;5087763;28;20067;-81
2022/11/26 10:25:32;;;;;;;31.05;14.70;;;7.10;99.90;;;;;;5053823;28;20048;-81
2022/11/26 10:27:59;;;;;;;35.15;15.05;;;7.10;99.90;;;;;;5053337;28;20129;-81
2022/11/26 10:30:27;;;;;;;36.17;14.05;;;7.20;99.90;;;;;;5054335;28;20052;-81
2022/11/26 10:32:54;;;;;;;28.65;12.93;;;7.10;99.90;;;;;;5054598;28;20071;-83
2022/11/26 10:35:26;;;;;;;39.40;14.48;;;7.20;99.90;;;;;;5063122;28;20045;-81
2022/11/26 10:37:54;;;;;;;43.60;14.85;;;7.60;99.90;;;;;;5087933;28;20055;-81
2022/11/26 10:40:24;;;;;;;26.77;13.35;;;7.30;99.90;;;;;;5067741;28;20037;-81
2022/11/26 10:43:17;;;;;;;37.03;14.18;;;7.30;99.90;;;;;;5083314;28;20109;-81
2022/11/26 10:45:43;;;;;;;45.40;14.43;;;7.30;99.90;;;;;;5057042;28;20045;-81
2022/11/26 10:48:17;;;;;;;34.15;13.43;;;7.40;99.90;;;;;;5054867;28;20093;-81
2022/11/26 10:50:58;;;;;;;34.33;13.40;;;7.30;99.90;;;;;;5055370;28;20044;-81
2022/11/26 10:53:25;;;;;;;29.77;12.98;;;7.40;99.90;;;;;;5071136;28;20045;-81
2022/11/26 10:55:55;;;;;;;28.92;13.48;;;7.40;99.90;;;;;;5049056;28;20052;-81
2022/11/26 10:58:25;;;;;;;33.10;13.23;;;7.40;99.90;;;;;;5070432;28;20051;-81
2022/11/26 11:00:50;;;;;;;30.33;14.05;;;7.50;99.90;;;;;;5054281;28;20037;-82
2022/11/26 11:03:35;;;;;;;30.90;13.65;;;7.70;99.90;;;;;;5069415;28;20039;-81
2022/11/26 11:06:19;;;;;;;32.67;12.93;;;7.50;99.90;;;;;;5064685;28;20136;-80
2022/11/26 11:08:50;;;;;;;29.98;13.23;;;7.50;99.90;;;;;;5056520;28;20044;-83
2022/11/26 11:11:29;;;;;;;26.25;11.55;;;7.60;99.90;;;;;;5070062;28;20044;-81
2022/11/26 11:13:55;;;;;;;31.15;13.25;;;7.70;99.90;;;;;;5051907;28;20052;-83
2022/11/26 11:16:39;;;;;;;30.10;12.02;;;7.60;99.90;;;;;;5052909;28;20526;-80
2022/11/26 11:19:22;;;;;;;37.50;13.63;;;7.70;99.90;;;;;;5069712;28;20373;-80
2022/11/26 11:21:48;;;;;;;26.55;12.10;;;7.80;99.90;;;;;;5066284;28;20041;-79
2022/11/26 11:24:17;;;;;;;31.70;13.88;;;7.80;99.90;;;;;;5018607;28;20040;-80
2022/11/26 11:26:48;;;;;;;28.58;12.80;;;7.80;99.90;;;;;;5052820;28;20045;-80
2022/11/26 11:29:36;;;;;;;34.72;13.63;;;7.90;99.90;;;;;;5070095;28;20079;-79
2022/11/26 11:32:05;;;;;;;32.00;13.95;;;8.00;99.90;;;;;;5067803;28;20510;-80
2022/11/26 11:34:36;;;;;;;32.63;13.10;;;8.00;99.90;;;;;;5051991;28;20040;-80
2022/11/26 11:37:12;;;;;;;28.50;11.07;;;8.10;99.90;;;;;;5066650;28;20037;-80
2022/11/26 11:39:38;;;;;;;23.33;10.85;;;8.10;99.90;;;;;;5054074;28;20060;-81
2022/11/26 11:42:13;;;;;;;32.47;14.25;;;8.10;99.90;;;;;;5071445;28;20041;-81
2022/11/26 11:44:45;;;;;;;33.15;13.57;;;8.10;99.90;;;;;;5070023;28;20127;-82
2022/11/26 11:47:23;;;;;;;31.67;12.55;;;8.10;99.90;;;;;;5045309;28;20434;-82
2022/11/26 11:50:14;;;;;;;33.03;14.20;;;8.20;99.90;;;;;;5070756;28;20123;-81
2022/11/26 11:53:12;;;;;;;31.90;13.45;;;8.20;99.90;;;;;;5088039;28;20120;-82
2022/11/26 11:56:15;;;;;;;32.85;14.02;;;8.20;99.90;;;;;;5066951;28;20063;-81
2022/11/26 11:58:52;;;;;;;30.85;11.70;;;8.20;99.90;;;;;;5043674;28;20044;-82
2022/11/26 12:01:25;;;;;;;31.60;12.45;;;8.20;99.90;;;;;;5052967;28;20106;-81
2022/11/26 12:04:30;;;;;;;30.83;12.75;;;8.20;99.90;;;;;;5066526;28;20097;-81
2022/11/26 12:07:17;;;;;;;31.98;13.15;;;8.30;99.90;;;;;;5071174;28;20108;-82
2022/11/26 12:09:53;;;;;;;33.15;12.18;;;8.30;99.90;;;;;;5054560;28;20120;-82
2022/11/26 12:12:25;;;;;;;;;;;8.30;99.90;;;;;;5071472;28;20396;-81
2022/11/26 12:14:59;;;;;;;33.70;13.68;;;8.30;99.90;;;;;;5072728;28;19924;-81
2022/11/26 12:17:46;;;;;;;34.60;14.00;;;8.30;99.90;;;;;;5071759;28;20051;-81
2022/11/26 12:20:40;;;;;;;33.67;14.93;;;8.40;99.90;;;;;;5054928;28;20063;-81
2022/11/26 12:23:24;;;;;;;34.55;14.23;;;8.40;99.90;;;;;;5071274;28;20041;-82
2022/11/26 12:26:16;;;;;;;24.88;13.07;;;8.50;99.90;;;;;;5057757;28;20056;-82
2022/11/26 12:28:57;;;;;;;32.83;14.00;;;8.50;99.90;;;;;;5057686;28;20248;-83
2022/11/26 12:31:55;;;;;;;30.60;12.15;;;8.60;99.90;;;;;;5074572;28;20092;-82
2022/11/26 12:34:30;;;;;;;41.15;14.35;;;8.60;99.90;;;;;;5056235;28;20045;-82
2022/11/26 12:37:16;;;;;;;32.75;13.88;;;8.70;99.90;;;;;;5072872;28;20091;-83
2022/11/26 12:39:45;;;;;;;36.25;14.85;;;8.80;99.90;;;;;;5056382;28;20075;-83
2022/11/26 12:42:18;;;;;;;32.55;12.43;;;8.80;99.90;;;;;;5074118;28;20044;-81
2022/11/26 12:44:50;;;;;;;33.13;13.77;;;8.90;99.90;;;;;;5074357;28;20502;-83
2022/11/26 12:47:32;;;;;;;37.60;13.45;;;8.90;99.90;;;;;;5073365;28;20048;-84
2022/11/26 12:50:24;;;;;;;29.85;11.90;;;8.90;99.90;;;;;;5091325;28;20059;-84
2022/11/26 12:53:11;;;;;;;28.25;13.15;;;8.90;99.90;;;;;;5056742;28;20040;-84
2022/11/26 12:55:50;;;;;;;30.25;13.45;;;9.00;99.90;;;;;;5090974;28;20056;-85
2022/11/26 12:58:43;;;;;;;31.70;11.02;;;9.00;99.90;;;;;;5074032;28;20402;-84